Lakeville, Pennsylvania
Current Conditions -  °F | °C
As of 3:53 AM on Saturday 20 Dec 2014 (Local Time) from KMPO Reporting Station
Overcast Overcast  
Wind Chill: 16°   Ceiling: 1000
Heat Index: 23°   Visibility: 10mi
Dew Point: 18°   Wind: 6mph
Humidity: 81%   Direction: 340°NNW
Pressure: 30.11"   Gusts: NA
Location:  41.43°N, 75.27°W
Report Text: KMPO 200853Z AUTO 34005KT 10SM OVC010 M05/M08 A3011 RMK AO2 SLP225 T10501078 53008
Loading
Personal Weather Stations






























Interactive Weather Map New forecast layout! Learn more

10-Day Weather Forecast

Advertisements
Track Severe Weather on mobile